createdAt,value
2018-03-16T00:00:26.753Z,89.7
2018-03-16T00:01:07.162Z,89.42
2018-03-16T00:01:47.600Z,89.47
2018-03-16T00:02:28.042Z,89.04
2018-03-16T00:03:08.407Z,89.27
2018-03-16T00:03:48.750Z,89.18
2018-03-16T00:04:29.294Z,89.04
2018-03-16T00:05:09.655Z,88.89
2018-03-16T00:05:50.110Z,88.99
2018-03-16T00:06:30.439Z,88.7
2018-03-16T00:07:10.889Z,88.99
2018-03-16T00:07:51.299Z,88.79
2018-03-16T00:08:31.676Z,87.94
2018-03-16T00:09:12.060Z,87.56
2018-03-16T00:09:52.498Z,87.08
2018-03-16T00:10:32.925Z,86.9
2018-03-16T00:11:13.272Z,86.9
2018-03-16T00:11:53.698Z,86.75
2018-03-16T00:12:34.119Z,86.32
2018-03-16T00:13:14.566Z,86.51
2018-03-16T00:13:54.930Z,87.27
2018-03-16T00:14:35.304Z,87.08
2018-03-16T00:15:15.744Z,87.56
2018-03-16T00:15:56.072Z,87.27
2018-03-16T00:16:36.556Z,87.08
2018-03-16T00:17:16.887Z,87.75
2018-03-16T00:17:57.364Z,87.75
2018-03-16T00:18:37.842Z,87.94
2018-03-16T00:19:18.205Z,87.94
2018-03-16T00:19:58.750Z,88.04
2018-03-16T00:20:39.089Z,87.85
2018-03-16T00:21:19.502Z,88.04
2018-03-16T00:21:59.921Z,88.04
2018-03-16T00:22:40.499Z,87.85
2018-03-16T00:23:20.876Z,88.6
2018-03-16T00:24:01.298Z,88.32
2018-03-16T00:24:41.774Z,87.94
2018-03-16T00:25:22.150Z,88.18
2018-03-16T00:26:02.628Z,88.04
2018-03-16T00:26:43.035Z,88.13
2018-03-16T00:27:23.504Z,88.89
2018-03-16T00:28:03.852Z,88.6
2018-03-16T00:28:44.253Z,88.13
2018-03-16T00:29:24.726Z,87.75
2018-03-16T00:30:05.172Z,87.37
2018-03-16T00:30:45.517Z,87.42
2018-03-16T00:31:25.945Z,87.94
2018-03-16T00:32:06.295Z,87.9
2018-03-16T00:32:46.725Z,88.37
2018-03-16T00:33:27.132Z,88.56
2018-03-16T00:34:07.568Z,88.66
2018-03-16T00:34:47.953Z,88.75
2018-03-16T00:35:28.356Z,89.04
2018-03-16T00:36:08.745Z,88.75
2018-03-16T00:36:49.126Z,88.6
2018-03-16T00:37:29.491Z,88.79
2018-03-16T00:38:09.955Z,88.79
2018-03-16T00:38:50.411Z,88.79
2018-03-16T00:39:30.818Z,88.04
2018-03-16T00:40:11.134Z,88.13
2018-03-16T00:40:51.632Z,87.65
2018-03-16T00:41:31.991Z,87.65
2018-03-16T00:42:12.435Z,87.27
2018-03-16T00:42:52.853Z,87.56
2018-03-16T00:43:33.176Z,87.56
2018-03-16T00:44:13.626Z,87.56
2018-03-16T00:44:54.010Z,88.42
2018-03-16T00:45:34.439Z,88.37
2018-03-16T00:46:14.802Z,87.99
2018-03-16T00:46:55.261Z,87.94
2018-03-16T00:47:35.624Z,88.42
2018-03-16T00:48:16.055Z,88.13
2018-03-16T00:48:56.545Z,87.99
2018-03-16T00:49:36.862Z,88.46
2018-03-16T00:50:17.230Z,88.56
2018-03-16T00:50:57.644Z,88.6
2018-03-16T00:51:38.003Z,88.89
2018-03-16T00:52:18.425Z,88.75
2018-03-16T00:52:58.774Z,88.75
2018-03-16T00:53:39.185Z,88.7
2018-03-16T00:54:19.616Z,88.04
2018-03-16T00:55:00.011Z,88.13
2018-03-16T00:55:40.496Z,88.51
2018-03-16T00:56:20.978Z,87.65
2018-03-16T00:57:01.296Z,88.37
2018-03-16T00:57:41.817Z,88.6
2018-03-16T00:58:22.189Z,88.04
2018-03-16T00:59:02.609Z,88.28
2018-03-16T00:59:42.981Z,88.04
2018-03-16T01:00:23.421Z,88.51
2018-03-16T01:01:03.838Z,88.85
2018-03-16T01:01:44.225Z,88.32
2018-03-16T01:02:24.600Z,87.94
2018-03-16T01:03:05.041Z,88.32
2018-03-16T01:03:45.438Z,88.85
2018-03-16T01:04:25.883Z,88.85
2018-03-16T01:05:06.223Z,88.75
2018-03-16T01:05:46.668Z,88.56
2018-03-16T01:06:27.029Z,88.46
2018-03-16T01:07:07.428Z,89.23
2018-03-16T01:07:47.856Z,89.23
2018-03-16T01:08:28.224Z,89.8
2018-03-16T01:09:08.604Z,89.23
2018-03-16T01:09:49.070Z,89.61
2018-03-16T01:10:29.425Z,89.23
2018-03-16T01:11:09.903Z,89.7
2018-03-16T01:11:50.388Z,89.23
2018-03-16T01:12:30.755Z,89.7
2018-03-16T01:13:11.175Z,89.7
2018-03-16T01:13:51.581Z,89.61
2018-03-16T01:14:31.993Z,89.7
2018-03-16T01:15:12.353Z,89.23
2018-03-16T01:15:52.782Z,90.08
2018-03-16T01:16:33.066Z,89.51
2018-03-16T01:17:13.584Z,89.23
2018-03-16T01:17:53.985Z,89.8
2018-03-16T01:18:34.362Z,89.23
2018-03-16T01:19:14.828Z,89.51
2018-03-16T01:19:55.225Z,89.32
2018-03-16T01:20:35.594Z,89.32
2018-03-16T01:21:15.937Z,89.99
2018-03-16T01:21:56.381Z,90.18
2018-03-16T01:22:36.811Z,90.08
2018-03-16T01:23:17.215Z,90.08
2018-03-16T01:23:57.604Z,89.89
2018-03-16T01:24:38.132Z,90.18
2018-03-16T01:25:18.528Z,90.08
2018-03-16T01:25:58.898Z,90.08
2018-03-16T01:26:39.348Z,89.7
2018-03-16T01:27:19.746Z,90.08
2018-03-16T01:28:00.109Z,89.7
2018-03-16T01:28:40.512Z,89.8
2018-03-16T01:29:20.887Z,90.28
2018-03-16T01:30:01.365Z,90.18
2018-03-16T01:30:41.784Z,90.08
2018-03-16T01:31:22.166Z,90.66
2018-03-16T01:32:02.503Z,90.75
2018-03-16T01:32:42.952Z,90.37
2018-03-16T01:33:23.546Z,89.99
2018-03-16T01:34:03.877Z,90.37
2018-03-16T01:34:44.322Z,89.99
2018-03-16T01:35:24.711Z,90.28
2018-03-16T01:36:05.107Z,90.08
2018-03-16T01:36:45.521Z,91.03
2018-03-16T01:37:25.878Z,90.94
2018-03-16T01:38:06.504Z,90.75
2018-03-16T01:38:46.900Z,90.84
2018-03-16T01:39:27.256Z,90.66
2018-03-16T01:40:07.701Z,91.03
2018-03-16T01:40:48.106Z,90.94
2018-03-16T01:41:28.561Z,90.94
2018-03-16T01:42:08.972Z,90.8
2018-03-16T01:42:49.293Z,91.42
2018-03-16T01:43:29.724Z,91.32
2018-03-16T01:44:10.146Z,91.42
2018-03-16T01:44:50.594Z,91.13
2018-03-16T01:45:30.966Z,91.22
2018-03-16T01:46:28.229Z,91.42
2018-03-16T01:47:08.608Z,91.61
2018-03-16T01:47:49.120Z,91.89
2018-03-16T01:48:29.490Z,91.94
2018-03-16T01:49:09.923Z,91.13
2018-03-16T01:49:50.303Z,91.7
2018-03-16T01:50:30.684Z,91.7
2018-03-16T01:51:11.162Z,91.8
2018-03-16T01:51:51.516Z,91.8
2018-03-16T01:52:31.998Z,91.61
2018-03-16T01:53:12.426Z,91.03
2018-03-16T01:53:52.861Z,91.13
2018-03-16T01:54:33.315Z,91.42
2018-03-16T01:55:13.748Z,91.32
2018-03-16T01:55:54.125Z,91.13
2018-03-16T01:56:34.504Z,90.94
2018-03-16T01:57:14.931Z,90.75
2018-03-16T01:57:55.284Z,90.37
2018-03-16T01:58:35.766Z,90.94
2018-03-16T01:59:16.123Z,90.56
2018-03-16T01:59:56.535Z,90.75
2018-03-16T02:00:36.927Z,91.03
2018-03-16T02:01:17.307Z,90.56
2018-03-16T02:01:57.677Z,90.94
2018-03-16T02:02:38.095Z,91.13
2018-03-16T02:03:18.499Z,91.03
2018-03-16T02:03:58.928Z,90.94
2018-03-16T02:04:39.247Z,90.84
2018-03-16T02:05:19.736Z,91.42
2018-03-16T02:06:00.127Z,91.03
2018-03-16T02:06:40.494Z,91.13
2018-03-16T02:07:20.915Z,91.32
2018-03-16T02:08:01.361Z,91.42
2018-03-16T02:08:41.815Z,90.75
2018-03-16T02:09:22.183Z,91.22
2018-03-16T02:10:02.550Z,91.13
2018-03-16T02:10:42.931Z,91.03
2018-03-16T02:11:23.450Z,90.75
2018-03-16T02:12:03.760Z,90.94
2018-03-16T02:12:44.199Z,90.66
2018-03-16T02:13:24.522Z,90.47
2018-03-16T02:14:04.993Z,90.94
2018-03-16T02:14:45.347Z,90.28
2018-03-16T02:15:25.761Z,90.08
2018-03-16T02:16:06.180Z,90.18
2018-03-16T02:16:46.528Z,90.28
2018-03-16T02:17:26.950Z,90.08
2018-03-16T02:18:07.382Z,89.99
2018-03-16T02:18:47.752Z,90.18
2018-03-16T02:19:28.173Z,89.61
2018-03-16T02:20:08.556Z,89.61
2018-03-16T02:20:49.016Z,89.23
2018-03-16T02:21:29.420Z,90.18
2018-03-16T02:22:09.860Z,89.99
2018-03-16T02:22:50.210Z,89.99
2018-03-16T02:23:30.521Z,90.18
2018-03-16T02:24:10.975Z,89.99
2018-03-16T02:24:51.393Z,90.08
2018-03-16T02:25:31.770Z,90.94
2018-03-16T02:26:12.238Z,90.18
2018-03-16T02:26:52.667Z,90.56
2018-03-16T02:27:33.107Z,90.22
2018-03-16T02:28:13.482Z,89.27
2018-03-16T02:28:53.920Z,88.79
2018-03-16T02:29:34.446Z,88.13
2018-03-16T02:30:14.787Z,88.04
2018-03-16T02:30:55.205Z,87.75
2018-03-16T02:31:35.535Z,87.08
2018-03-16T02:32:15.988Z,87.56
2018-03-16T02:32:56.321Z,87.32
2018-03-16T02:33:36.773Z,86.18
2018-03-16T02:34:17.170Z,86.36
2018-03-16T02:34:57.596Z,86.08
2018-03-16T02:35:37.998Z,86.08
2018-03-16T02:36:18.315Z,85.7
2018-03-16T02:36:58.748Z,85.22
2018-03-16T02:37:39.137Z,85.41
2018-03-16T02:38:19.542Z,85.03
2018-03-16T02:38:59.931Z,85.03
2018-03-16T02:39:40.424Z,84.56
2018-03-16T02:40:20.804Z,84.75
2018-03-16T02:41:01.215Z,84.08
2018-03-16T02:41:41.744Z,83.8
2018-03-16T02:42:22.125Z,83.93
2018-03-16T02:43:02.539Z,83.74
2018-03-16T02:43:42.967Z,83.93
2018-03-16T02:44:23.366Z,83.45
2018-03-16T02:45:03.776Z,83.17
2018-03-16T02:45:44.162Z,83.65
2018-03-16T02:46:24.554Z,83.07
2018-03-16T02:47:04.960Z,83.36
2018-03-16T02:47:45.368Z,83.55
2018-03-16T02:48:25.851Z,83.07
2018-03-16T02:49:06.234Z,82.98
2018-03-16T02:49:46.645Z,82.98
2018-03-16T02:50:27.088Z,82.89
2018-03-16T02:51:07.403Z,82.69
2018-03-16T02:51:47.884Z,83.17
2018-03-16T02:52:28.252Z,83.17
2018-03-16T02:53:08.608Z,82.21
2018-03-16T02:53:49.070Z,82.5
2018-03-16T02:54:29.424Z,82.6
2018-03-16T02:55:09.853Z,82.5
2018-03-16T02:55:50.249Z,82.31
2018-03-16T02:56:30.679Z,81.93
2018-03-16T02:57:11.069Z,82.12
2018-03-16T02:57:51.501Z,82.03
2018-03-16T02:58:31.956Z,82.31
2018-03-16T02:59:12.348Z,81.84
2018-03-16T02:59:52.701Z,81.84
2018-03-16T03:00:33.058Z,82.12
2018-03-16T03:01:13.528Z,81.84
2018-03-16T03:01:53.894Z,82.12
2018-03-16T03:02:34.288Z,82.5
2018-03-16T03:03:14.712Z,82.6
2018-03-16T03:03:55.136Z,82.31
2018-03-16T03:04:35.481Z,83.07
2018-03-16T03:05:15.908Z,82.79
2018-03-16T03:05:56.280Z,83.36
2018-03-16T03:06:36.684Z,83.51
2018-03-16T03:07:17.119Z,83.22
2018-03-16T03:07:57.535Z,83.32
2018-03-16T03:08:37.946Z,83.36
2018-03-16T03:09:18.328Z,83.03
2018-03-16T03:09:58.734Z,83.32
2018-03-16T03:10:39.182Z,83.13
2018-03-16T03:11:19.578Z,83.26
2018-03-16T03:11:59.947Z,83.36
2018-03-16T03:12:40.447Z,83.74
2018-03-16T03:13:20.790Z,83.74
2018-03-16T03:14:01.199Z,83.61
2018-03-16T03:14:41.618Z,82.75
2018-03-16T03:15:22.040Z,82.93
2018-03-16T03:16:02.420Z,83.32
2018-03-16T03:16:42.846Z,83.41
2018-03-16T03:17:23.236Z,83.89
2018-03-16T03:18:03.708Z,83.7
2018-03-16T03:18:44.088Z,83.61
2018-03-16T03:19:24.445Z,83.98
2018-03-16T03:20:04.791Z,84.08
2018-03-16T03:20:45.266Z,83.98
2018-03-16T03:21:25.680Z,83.89
2018-03-16T03:22:06.080Z,83.98
2018-03-16T03:22:46.512Z,84.08
2018-03-16T03:23:26.945Z,84.46
2018-03-16T03:24:07.282Z,84.65
2018-03-16T03:24:47.720Z,84.65
2018-03-16T03:25:28.079Z,84.65
2018-03-16T03:26:08.482Z,85.03
2018-03-16T03:26:48.920Z,85.51
2018-03-16T03:27:29.353Z,85.6
2018-03-16T03:28:09.645Z,85.6
2018-03-16T03:28:50.070Z,86.22
2018-03-16T03:29:30.490Z,86.32
2018-03-16T03:30:10.856Z,86.22
2018-03-16T03:30:51.292Z,86.32
2018-03-16T03:31:31.731Z,86.61
2018-03-16T03:32:12.137Z,86.42
2018-03-16T03:32:52.546Z,86.51
2018-03-16T03:33:33.028Z,86.61
2018-03-16T03:34:13.435Z,86.51
2018-03-16T03:34:53.774Z,86.51
2018-03-16T03:35:34.204Z,86.61
2018-03-16T03:36:14.565Z,87.18
2018-03-16T03:36:54.994Z,87.18
2018-03-16T03:37:35.459Z,86.61
2018-03-16T03:38:15.819Z,86.04
2018-03-16T03:38:56.204Z,86.61
2018-03-16T03:39:36.654Z,87.08
2018-03-16T03:40:17.070Z,86.8
2018-03-16T03:40:57.409Z,86.9
2018-03-16T03:41:37.768Z,87.27
2018-03-16T03:42:18.135Z,86.9
2018-03-16T03:42:58.605Z,87.08
2018-03-16T03:43:38.977Z,87.27
2018-03-16T03:44:19.323Z,86.9
2018-03-16T03:44:59.713Z,87.08
2018-03-16T03:45:40.161Z,86.9
2018-03-16T03:46:20.638Z,87.08
2018-03-16T03:47:00.997Z,86.9
2018-03-16T03:47:41.408Z,86.9
2018-03-16T03:48:21.786Z,87.08
2018-03-16T03:49:02.218Z,87.56
2018-03-16T03:49:42.679Z,87.46
2018-03-16T03:50:23.047Z,87.08
2018-03-16T03:51:03.412Z,87.27
2018-03-16T03:51:43.866Z,87.46
2018-03-16T03:52:24.303Z,87.75
2018-03-16T03:53:04.692Z,87.99
2018-03-16T03:53:45.116Z,88.37
2018-03-16T03:54:25.468Z,88.79
2018-03-16T03:55:05.898Z,88.6
2018-03-16T03:55:46.293Z,88.56
2018-03-16T03:56:26.706Z,88.66
2018-03-16T03:57:07.073Z,87.99
2018-03-16T03:57:47.490Z,88.75
2018-03-16T03:58:27.920Z,88.7
2018-03-16T03:59:08.377Z,88.7
2018-03-16T03:59:48.743Z,88.79
2018-03-16T04:00:29.152Z,88.32
2018-03-16T04:01:09.551Z,88.42
2018-03-16T04:01:49.947Z,88.13
2018-03-16T04:02:30.350Z,88.23
2018-03-16T04:03:10.776Z,88.13
2018-03-16T04:03:51.117Z,88.13
2018-03-16T04:04:31.603Z,87.65
2018-03-16T04:05:12.012Z,88.04
2018-03-16T04:05:52.377Z,87.27
2018-03-16T04:06:32.726Z,86.9
2018-03-16T04:07:13.188Z,87.18
2018-03-16T04:07:53.563Z,87.46
2018-03-16T04:47:49.633Z,91.85
2018-03-16T04:48:30.038Z,92.03
2018-03-16T04:49:10.440Z,91.85
2018-03-16T04:49:50.813Z,92.22
2018-03-16T04:50:31.195Z,92.22
2018-03-16T04:51:11.588Z,92.89
2018-03-16T04:51:51.924Z,92.51
2018-03-16T04:52:32.322Z,92.51
2018-03-16T04:53:12.765Z,92.41
2018-03-16T04:53:53.149Z,92.8
2018-03-16T04:54:33.603Z,92.7
2018-03-16T04:55:14.032Z,92.8
2018-03-16T04:55:54.376Z,92.51
2018-03-16T04:56:34.840Z,92.8
2018-03-16T04:57:15.220Z,92.56
2018-03-16T04:57:55.631Z,92.75
2018-03-16T04:58:35.961Z,92.65
2018-03-16T04:59:16.393Z,93.13
2018-03-16T04:59:56.787Z,92.94
2018-03-16T05:00:37.208Z,92.08
2018-03-16T05:01:17.627Z,92.08
2018-03-16T05:01:58.035Z,91.8
2018-03-16T05:02:38.435Z,91.8
2018-03-16T05:03:18.819Z,91.13
2018-03-16T05:03:59.218Z,90.75
2018-03-16T05:04:39.534Z,91.13
2018-03-16T05:05:20.042Z,91.32
2018-03-16T05:06:00.377Z,90.61
2018-03-16T05:06:40.838Z,90.42
2018-03-16T05:07:21.213Z,90.28
2018-03-16T05:08:01.686Z,90.03
2018-03-16T05:08:42.125Z,90.13
2018-03-16T05:09:22.555Z,89.47
2018-03-16T05:10:02.891Z,89.65
2018-03-16T05:10:43.336Z,89.27
2018-03-16T05:11:23.677Z,89.18
2018-03-16T05:12:04.176Z,89.27
2018-03-16T05:12:44.567Z,89.08
2018-03-16T05:13:24.973Z,88.89
2018-03-16T05:14:05.414Z,88.6
2018-03-16T05:14:45.816Z,88.79
2018-03-16T05:15:26.247Z,88.99
2018-03-16T05:16:06.718Z,89.27
2018-03-16T05:16:47.091Z,88.99
2018-03-16T05:17:27.454Z,88.99
2018-03-16T05:18:07.933Z,88.6
2018-03-16T05:18:48.367Z,88.13
2018-03-16T05:19:28.746Z,88.13
2018-03-16T05:20:09.170Z,88.13
2018-03-16T05:20:49.568Z,88.42
2018-03-16T05:21:30.021Z,88.13
2018-03-16T05:22:10.359Z,88.04
2018-03-16T05:22:50.770Z,88.13
2018-03-16T05:23:31.177Z,88.42
2018-03-16T05:24:11.556Z,87.94
2018-03-16T05:24:51.975Z,87.75
2018-03-16T05:25:32.383Z,87.75
2018-03-16T05:26:12.800Z,88.13
2018-03-16T05:26:53.110Z,88.04
2018-03-16T05:27:33.571Z,88.42
2018-03-16T05:28:14.003Z,87.94
2018-03-16T05:28:54.372Z,87.94
2018-03-16T05:29:34.779Z,87.65
2018-03-16T05:30:15.188Z,87.08
2018-03-16T05:30:55.647Z,87.27
2018-03-16T05:31:35.959Z,87.75
2018-03-16T05:32:16.391Z,86.7
2018-03-16T05:32:56.857Z,87.32
2018-03-16T05:33:37.225Z,87.41
2018-03-16T05:34:17.610Z,87.13
2018-03-16T05:34:58.104Z,87.13
2018-03-16T05:35:38.385Z,87.23
2018-03-16T05:36:18.839Z,87.32
2018-03-16T05:36:59.288Z,87.32
2018-03-16T05:37:39.570Z,87.32
2018-03-16T05:38:20.037Z,87.03
2018-03-16T05:39:00.497Z,86.55
2018-03-16T05:39:40.851Z,86.65
2018-03-16T05:40:21.316Z,87.32
2018-03-16T05:41:01.734Z,86.94
2018-03-16T05:41:42.074Z,87.23
2018-03-16T05:42:22.513Z,86.65
2018-03-16T05:43:02.872Z,86.75
2018-03-16T05:43:43.258Z,86.55
2018-03-16T05:44:24.322Z,86.65
2018-03-16T05:45:04.736Z,87.23
2018-03-16T05:45:45.120Z,86.94
2018-03-16T05:46:25.554Z,87.13
2018-03-16T05:47:05.962Z,87.08
2018-03-16T05:47:46.415Z,87.41
2018-03-16T05:50:22.098Z,87.7
2018-03-16T05:51:00.345Z,87.13
2018-03-16T05:51:40.698Z,87.23
2018-03-16T05:52:21.103Z,87.03
2018-03-16T05:53:01.503Z,86.84
2018-03-16T05:53:41.923Z,87.6
2018-03-16T05:54:22.324Z,87.13
2018-03-16T05:55:02.770Z,87.13
2018-03-16T05:55:43.232Z,87.23
2018-03-16T05:56:23.601Z,86.36
2018-03-16T05:57:03.981Z,87.13
2018-03-16T05:57:44.380Z,87.23
2018-03-16T05:58:24.804Z,87.23
2018-03-16T05:59:05.793Z,86.94
2018-03-16T05:59:45.710Z,87.32
2018-03-16T06:00:26.097Z,87.23
2018-03-16T06:01:06.503Z,86.55
2018-03-16T06:01:46.965Z,86.08
2018-03-16T06:02:27.307Z,85.99
2018-03-16T06:03:07.719Z,86.75
2018-03-16T06:03:48.084Z,86.65
2018-03-16T06:04:28.474Z,86.84
2018-03-16T06:05:08.903Z,86.65
2018-03-16T06:05:49.292Z,86.75
2018-03-16T06:06:29.715Z,87.13
2018-03-16T06:09:03.711Z,87.13
2018-03-16T06:09:44.107Z,87.41
2018-03-16T06:10:24.522Z,87.03
2018-03-16T06:11:04.862Z,86.84
2018-03-16T06:11:45.310Z,87.13
2018-03-16T06:12:25.652Z,87.23
2018-03-16T06:13:06.036Z,86.94
2018-03-16T06:13:46.497Z,87.13
2018-03-16T06:14:26.844Z,87.13
2018-03-16T06:15:07.326Z,86.75
2018-03-16T06:17:50.553Z,86.65
2018-03-16T06:18:30.944Z,86.84
2018-03-16T06:19:11.337Z,86.55
2018-03-16T06:19:51.731Z,87.23
2018-03-16T06:20:32.241Z,86.94
2018-03-16T06:21:12.559Z,87.79
2018-03-16T06:21:53.014Z,87.6
2018-03-16T06:22:33.356Z,87.6
2018-03-16T06:23:13.758Z,87.03
2018-03-16T06:23:54.164Z,87.03
2018-03-16T06:24:34.603Z,86.55
2018-03-16T06:25:14.954Z,86.65
2018-03-16T06:25:55.461Z,86.55
2018-03-16T06:26:35.826Z,86.08
2018-03-16T06:27:16.265Z,86.36
2018-03-16T06:27:56.562Z,86.84
2018-03-16T06:28:36.956Z,86.08
2018-03-16T06:29:17.351Z,86.36
2018-03-16T06:29:57.794Z,86.75
2018-03-16T06:30:38.209Z,86.94
2018-03-16T06:31:18.709Z,86.55
2018-03-16T06:31:59.185Z,87.13
2018-03-16T06:32:39.567Z,86.65
2018-03-16T06:33:19.993Z,86.75
2018-03-16T06:34:00.417Z,85.89
2018-03-16T06:34:40.848Z,86.08
2018-03-16T06:35:21.231Z,86.36
2018-03-16T06:36:01.613Z,86.12
2018-03-16T06:36:42.118Z,85.6
2018-03-16T06:37:22.450Z,85.64
2018-03-16T06:38:02.837Z,85.55
2018-03-16T06:38:43.237Z,85.55
2018-03-16T06:39:23.644Z,85.74
2018-03-16T06:40:04.077Z,85.46
2018-03-16T06:40:44.418Z,85.08
2018-03-16T06:41:24.794Z,84.98
2018-03-16T06:42:05.296Z,84.69
2018-03-16T06:42:45.626Z,83.84
2018-03-16T06:43:26.002Z,84.03
2018-03-16T06:44:06.390Z,83.65
2018-03-16T06:44:46.939Z,83.84
2018-03-16T06:45:29.086Z,84.03
2018-03-16T06:46:08.536Z,83.93
2018-03-16T06:46:49.004Z,83.84
2018-03-16T06:47:29.409Z,83.65
2018-03-16T06:48:09.920Z,83.93
2018-03-16T06:48:50.337Z,83.93
2018-03-16T06:49:30.858Z,83.65
2018-03-16T06:50:12.484Z,83.55
2018-03-16T06:50:52.917Z,83.84
2018-03-16T06:51:33.381Z,83.36
2018-03-16T06:52:13.797Z,83.74
2018-03-16T06:52:54.232Z,83.07
2018-03-16T06:53:34.843Z,83.45
2018-03-16T06:54:15.264Z,84.03
2018-03-16T06:54:56.841Z,84.12
2018-03-16T06:55:37.257Z,84.03
2018-03-16T06:56:17.678Z,83.78
2018-03-16T06:56:58.085Z,83.31
2018-03-16T06:57:38.526Z,83.4
2018-03-16T06:58:18.944Z,83.69
2018-03-16T06:58:59.321Z,82.92
2018-03-16T06:59:39.772Z,82.54
2018-03-16T07:00:20.195Z,82.92
2018-03-16T07:01:00.606Z,82.73
2018-03-16T07:01:41.059Z,83.21
2018-03-16T07:02:21.468Z,82.45
2018-03-16T07:03:02.007Z,82.64
2018-03-16T07:03:42.413Z,82.45
2018-03-16T07:04:22.969Z,82.45
2018-03-16T07:05:03.405Z,83.31
2018-03-16T07:05:43.904Z,82.54
2018-03-16T07:06:24.244Z,82.64
2018-03-16T07:07:04.657Z,82.35
2018-03-16T07:07:45.106Z,82.45
2018-03-16T07:08:25.454Z,82.45
2018-03-16T07:09:05.908Z,82.54
2018-03-16T07:09:46.374Z,82.26
2018-03-16T07:10:26.803Z,82.73
2018-03-16T07:11:07.264Z,83.02
2018-03-16T07:11:47.649Z,83.12
2018-03-16T07:12:28.028Z,83.12
2018-03-16T07:13:08.479Z,83.17
2018-03-16T07:13:48.825Z,82.64
2018-03-16T07:14:29.281Z,82.45
2018-03-16T07:15:09.661Z,82.5
2018-03-16T07:15:50.062Z,82.5
2018-03-16T07:18:03.071Z,83.74
2018-03-16T07:18:43.374Z,83.4
2018-03-16T07:19:23.823Z,83.36
2018-03-16T07:20:04.220Z,83.26
2018-03-16T07:20:44.618Z,82.89
2018-03-16T07:21:25.040Z,83.07
2018-03-16T07:22:05.400Z,83.07
2018-03-16T07:22:45.871Z,82.79
2018-03-16T07:23:26.225Z,83.45
2018-03-16T07:24:06.771Z,83.26
2018-03-16T07:24:47.139Z,83.55
2018-03-16T07:25:27.527Z,83.26
2018-03-16T07:26:07.899Z,83.36
2018-03-16T07:26:48.334Z,83.17
2018-03-16T07:27:28.789Z,83.36
2018-03-16T07:28:09.190Z,83.26
2018-03-16T07:28:49.612Z,83.36
2018-03-16T07:29:29.977Z,84.03
2018-03-16T07:30:10.339Z,83.93
2018-03-16T07:30:50.809Z,83.84
2018-03-16T07:31:32.005Z,84.31
2018-03-16T07:32:12.461Z,84.98
2018-03-16T07:32:52.871Z,84.79
2018-03-16T07:33:33.257Z,84.79
2018-03-16T07:34:13.676Z,84.41
2018-03-16T07:34:54.064Z,84.5
2018-03-16T07:35:34.629Z,85.08
2018-03-16T07:36:14.987Z,85.08
2018-03-16T07:36:55.453Z,84.88
2018-03-16T07:37:35.769Z,85.74
2018-03-16T07:38:16.192Z,85.64
2018-03-16T07:38:56.718Z,85.55
2018-03-16T07:39:37.200Z,85.46
2018-03-16T07:40:17.542Z,85.46
2018-03-16T07:40:58.011Z,85.27
2018-03-16T07:41:38.449Z,86.41
2018-03-16T07:42:18.854Z,86.32
2018-03-16T07:42:59.326Z,86.32
2018-03-16T07:43:39.690Z,86.41
2018-03-16T07:44:20.121Z,86.12
2018-03-16T07:45:00.795Z,86.41
2018-03-16T07:45:41.007Z,86.12
2018-03-16T07:46:21.557Z,86.22
2018-03-16T07:47:03.240Z,86.6
2018-03-16T07:48:55.816Z,87.27
2018-03-16T07:49:34.996Z,87.27
2018-03-16T07:50:15.602Z,87.17
2018-03-16T07:52:35.721Z,87.46
2018-03-16T07:53:15.952Z,87.17
2018-03-16T07:53:56.349Z,86.32
2018-03-16T07:54:36.795Z,86.69
2018-03-16T07:55:17.416Z,86.79
2018-03-16T07:55:57.956Z,87.27
2018-03-16T07:56:38.339Z,87.46
2018-03-16T07:57:19.705Z,87.36
2018-03-16T07:57:59.872Z,86.88
2018-03-16T07:58:41.069Z,86.98
2018-03-16T07:59:22.072Z,87.36
2018-03-16T08:00:04.560Z,87.65
2018-03-16T08:00:44.843Z,87.79
2018-03-16T08:01:25.772Z,87.84
2018-03-16T08:02:05.865Z,88.51
2018-03-16T08:02:46.696Z,88.12
2018-03-16T08:03:27.891Z,88.41
2018-03-16T08:04:08.522Z,88.22
2018-03-16T08:04:49.780Z,89.07
2018-03-16T08:05:30.639Z,88.7
2018-03-16T08:06:12.018Z,88.89
2018-03-16T08:06:53.562Z,88.7
2018-03-16T08:07:33.784Z,88.22
2018-03-16T08:08:15.025Z,88.41
2018-03-16T08:08:55.549Z,87.74
2018-03-16T08:09:36.444Z,87.84
2018-03-16T08:10:17.443Z,88.03
2018-03-16T08:10:58.111Z,87.84
2018-03-16T08:11:39.238Z,87.84
2018-03-16T08:12:19.475Z,87.84
2018-03-16T08:13:00.129Z,87.36
2018-03-16T08:13:40.507Z,87.17
2018-03-16T08:14:21.074Z,87.65
2018-03-16T08:15:01.545Z,87.74
2018-03-16T08:15:41.918Z,87.93
2018-03-16T08:16:22.880Z,87.84
2018-03-16T08:17:02.977Z,88.12
2018-03-16T08:17:43.923Z,88.22
2018-03-16T08:18:24.393Z,87.74
2018-03-16T08:19:04.616Z,87.84
2018-03-16T08:19:45.350Z,87.84
2018-03-16T08:20:26.024Z,87.74
2018-03-16T08:21:06.449Z,87.55
2018-03-16T08:21:46.924Z,87.84
2018-03-16T08:22:27.324Z,87.36
2018-03-16T08:23:07.714Z,87.27
2018-03-16T08:23:48.217Z,87.36
2018-03-16T08:24:28.912Z,87.27
2018-03-16T08:25:10.026Z,87.17
2018-03-16T08:25:51.158Z,87.17
2018-03-16T08:26:33.510Z,87.07
2018-03-16T08:27:13.800Z,86.98
2018-03-16T08:27:54.654Z,87.36
2018-03-16T08:28:34.869Z,87.55
2018-03-16T08:29:18.670Z,87.84
2018-03-16T08:30:02.709Z,87.65
2018-03-16T08:30:43.774Z,87.12
2018-03-16T08:31:24.014Z,87.4
2018-03-16T08:32:04.693Z,86.55
2018-03-16T08:32:48.602Z,86.55
2018-03-16T08:33:29.053Z,87.69
2018-03-16T08:34:11.220Z,86.74
2018-03-16T08:34:52.604Z,87.4
2018-03-16T08:35:33.183Z,86.93
2018-03-16T08:36:13.782Z,87.5
2018-03-16T08:36:54.229Z,87.21
2018-03-16T08:37:34.540Z,86.93
2018-03-16T08:38:14.990Z,87.5
2018-03-16T08:38:55.390Z,87.5
2018-03-16T08:39:35.780Z,87.21
2018-03-16T08:40:16.722Z,87.45
2018-03-16T08:40:57.192Z,85.73
2018-03-16T08:41:38.111Z,85.35
2018-03-16T08:42:18.602Z,84.88
2018-03-16T08:42:58.960Z,84.59
2018-03-16T08:43:39.392Z,84.69
2018-03-16T08:44:19.855Z,84.69
2018-03-16T08:45:01.191Z,84.88
2018-03-16T08:45:41.606Z,84.78
2018-03-16T08:46:22.012Z,84.78
2018-03-16T08:47:02.347Z,85.06
2018-03-16T08:47:42.761Z,84.11
2018-03-16T08:48:23.344Z,83.16
2018-03-16T08:49:03.799Z,83.25
2018-03-16T08:49:44.281Z,83.16
2018-03-16T08:50:24.569Z,83.44
2018-03-16T08:51:05.080Z,83.16
2018-03-16T08:51:45.379Z,83.25
2018-03-16T08:52:25.800Z,83.92
2018-03-16T08:53:06.290Z,83.54
2018-03-16T08:53:46.545Z,83.25
2018-03-16T08:54:26.970Z,84.01
2018-03-16T08:55:07.325Z,83.83
2018-03-16T08:55:47.788Z,84.2
2018-03-16T08:56:28.234Z,84.2
2018-03-16T08:57:08.695Z,84.11
2018-03-16T08:57:49.206Z,83.83
2018-03-16T08:58:29.606Z,83.92
2018-03-16T08:59:10.016Z,83.83
2018-03-16T08:59:50.555Z,83.92
2018-03-16T09:00:32.760Z,83.92
2018-03-16T09:01:13.994Z,83.06
2018-03-16T09:01:54.441Z,82.3
2018-03-16T09:02:36.414Z,82.53
2018-03-16T09:03:16.853Z,82.63
2018-03-16T09:03:57.378Z,82.78
2018-03-16T09:04:37.909Z,82.82
2018-03-16T09:05:18.769Z,82.97
2018-03-16T09:05:59.760Z,82.53
2018-03-16T09:06:40.349Z,82.2
2018-03-16T09:07:20.838Z,82.49
2018-03-16T09:08:01.371Z,83.73
2018-03-16T09:08:41.803Z,83.83
2018-03-16T09:09:22.186Z,83.06
2018-03-16T09:10:02.691Z,83.25
2018-03-16T09:10:43.486Z,83.54
2018-03-16T09:11:25.441Z,83.92
2018-03-16T09:12:06.829Z,83.64
2018-03-16T09:12:47.151Z,83.73
2018-03-16T09:13:27.614Z,83.83
2018-03-16T09:14:07.994Z,83.64
2018-03-16T09:14:48.650Z,83.54
2018-03-16T09:15:28.993Z,83.25
2018-03-16T09:16:09.447Z,83.54
2018-03-16T09:16:49.885Z,83.87
2018-03-16T09:17:30.288Z,84.2
2018-03-16T09:18:10.789Z,84.97
2018-03-16T09:18:51.641Z,84.88
2018-03-16T09:22:35.946Z,85.06
2018-03-16T09:23:16.010Z,85.06
2018-03-16T09:23:56.436Z,84.88
2018-03-16T09:24:36.887Z,84.69
2018-03-16T09:25:17.375Z,84.59
2018-03-16T09:25:57.646Z,84.01
2018-03-16T09:26:40.252Z,84.2
2018-03-16T09:27:19.857Z,84.78
2018-03-16T09:28:02.272Z,85.16
2018-03-16T09:28:44.457Z,85.16
2018-03-16T09:29:25.165Z,84.78
2018-03-16T09:30:06.053Z,85.06
2018-03-16T09:30:47.595Z,85.73
2018-03-16T09:31:28.101Z,85.83
2018-03-16T09:32:14.502Z,85.54
2018-03-16T09:32:52.060Z,85.06
2018-03-16T09:36:12.512Z,84.59
2018-03-16T09:36:53.154Z,85.93
2018-03-16T09:37:33.323Z,86.4
2018-03-16T09:38:14.128Z,86.69
2018-03-16T09:38:55.148Z,86.88